createdAt,value
2017-08-29T00:01:55.947Z,19.20
2017-08-29T00:04:23.446Z,19.10
2017-08-29T00:06:50.943Z,19.10
2017-08-29T00:09:18.446Z,19.20
2017-08-29T00:11:45.944Z,19.10
2017-08-29T00:14:13.442Z,19.10
2017-08-29T00:16:40.926Z,19.00
2017-08-29T00:19:08.418Z,19.10
2017-08-29T00:21:35.911Z,19.00
2017-08-29T00:24:03.430Z,19.00
2017-08-29T00:26:30.905Z,19.00
2017-08-29T00:28:58.406Z,18.90
2017-08-29T00:31:25.890Z,18.90
2017-08-29T00:33:53.398Z,18.90
2017-08-29T00:36:20.897Z,18.90
2017-08-29T00:38:48.367Z,18.90
2017-08-29T00:41:15.875Z,18.90
2017-08-29T00:43:43.369Z,18.80
2017-08-29T00:46:11.057Z,18.80
2017-08-29T00:48:38.534Z,18.80
2017-08-29T00:51:06.037Z,18.90
2017-08-29T00:53:33.521Z,18.90
2017-08-29T00:56:01.039Z,18.80
2017-08-29T00:58:28.550Z,18.80
2017-08-29T01:00:56.065Z,18.80
2017-08-29T01:03:23.546Z,18.90
2017-08-29T01:05:51.066Z,18.90
2017-08-29T01:08:18.557Z,18.80
2017-08-29T01:10:46.822Z,18.70
2017-08-29T01:13:14.312Z,18.60
2017-08-29T01:15:41.804Z,18.60
2017-08-29T01:18:09.294Z,18.60
2017-08-29T01:20:36.799Z,18.70
2017-08-29T01:23:04.298Z,18.60
2017-08-29T01:25:31.785Z,18.60
2017-08-29T01:27:59.269Z,18.60
2017-08-29T01:30:26.778Z,18.60
2017-08-29T01:32:54.272Z,18.60
2017-08-29T01:35:27.858Z,18.70
2017-08-29T01:37:55.366Z,18.70
2017-08-29T01:40:22.880Z,18.60
2017-08-29T01:42:50.360Z,18.70
2017-08-29T01:45:17.855Z,18.50
2017-08-29T01:47:45.363Z,18.50
2017-08-29T01:50:12.868Z,18.50
2017-08-29T01:52:40.371Z,18.40
2017-08-29T01:55:08.625Z,18.50
2017-08-29T01:57:36.135Z,18.40
2017-08-29T02:00:03.606Z,18.50
2017-08-29T02:05:23.968Z,18.40
2017-08-29T02:07:51.459Z,18.40
2017-08-29T02:10:18.945Z,18.40
2017-08-29T02:12:46.456Z,18.30
2017-08-29T02:15:13.964Z,18.30
2017-08-29T02:17:41.466Z,18.30
2017-08-29T02:20:08.963Z,18.20
2017-08-29T02:22:36.457Z,18.30
2017-08-29T02:25:03.944Z,18.20
2017-08-29T02:27:31.454Z,18.20
2017-08-29T02:29:58.948Z,18.10
2017-08-29T02:32:27.236Z,18.20
2017-08-29T02:34:55.512Z,18.10
2017-08-29T02:37:23.026Z,18.10
2017-08-29T02:39:50.509Z,18.10
2017-08-29T02:42:18.021Z,18.20
2017-08-29T02:44:45.504Z,18.20
2017-08-29T02:47:13.019Z,18.10
2017-08-29T02:49:40.502Z,18.00
2017-08-29T02:52:07.979Z,18.10
2017-08-29T02:54:35.478Z,18.10
2017-08-29T02:57:02.968Z,18.10
2017-08-29T02:59:30.466Z,18.10
2017-08-29T03:01:57.943Z,18.10
2017-08-29T03:04:26.202Z,18.10
2017-08-29T03:06:53.690Z,18.10
2017-08-29T03:09:21.186Z,18.00
2017-08-29T03:11:48.670Z,18.10
2017-08-29T03:14:16.153Z,18.00
2017-08-29T03:16:44.333Z,17.90
2017-08-29T03:19:11.840Z,18.00
2017-08-29T03:21:39.326Z,18.00
2017-08-29T03:24:06.900Z,17.90
2017-08-29T03:26:34.394Z,17.90
2017-08-29T03:29:01.909Z,17.90
2017-08-29T03:31:29.391Z,18.00
2017-08-29T03:33:56.889Z,18.00
2017-08-29T03:36:24.364Z,17.90
2017-08-29T03:38:51.850Z,17.90
2017-08-29T03:41:20.118Z,17.90
2017-08-29T03:43:47.598Z,17.90
2017-08-29T03:46:15.099Z,17.80
2017-08-29T03:48:42.580Z,17.80
2017-08-29T03:51:10.080Z,17.80
2017-08-29T03:53:37.585Z,17.80
2017-08-29T03:56:05.083Z,17.80
2017-08-29T03:58:33.345Z,17.80
2017-08-29T04:01:01.598Z,17.80
2017-08-29T04:03:29.092Z,17.80
2017-08-29T04:05:57.365Z,17.70
2017-08-29T04:08:24.861Z,17.70
2017-08-29T04:10:52.366Z,17.70
2017-08-29T04:13:19.841Z,17.70
2017-08-29T04:15:47.328Z,17.60
2017-08-29T04:18:14.838Z,17.60
2017-08-29T04:20:42.361Z,17.70
2017-08-29T04:23:09.838Z,17.70
2017-08-29T04:25:37.315Z,17.60
2017-08-29T04:28:04.816Z,17.70
2017-08-29T04:30:32.315Z,17.70
2017-08-29T04:32:59.827Z,17.70
2017-08-29T04:35:35.117Z,17.70
2017-08-29T04:38:02.615Z,17.70
2017-08-29T04:40:30.115Z,17.60
2017-08-29T04:42:57.631Z,17.60
2017-08-29T04:45:25.155Z,17.60
2017-08-29T04:47:52.652Z,17.50
2017-08-29T04:50:20.132Z,17.50
2017-08-29T04:52:47.614Z,17.50
2017-08-29T04:55:15.102Z,17.60
2017-08-29T04:57:42.593Z,17.60
2017-08-29T05:00:10.092Z,17.50
2017-08-29T05:02:37.619Z,17.50
2017-08-29T05:05:05.133Z,17.60
2017-08-29T05:07:32.657Z,17.70
2017-08-29T05:10:00.156Z,17.70
2017-08-29T05:12:28.412Z,17.70
2017-08-29T05:14:55.911Z,17.70
2017-08-29T05:17:23.440Z,17.70
2017-08-29T05:19:50.946Z,17.70
2017-08-29T05:22:18.442Z,17.80
2017-08-29T05:24:45.939Z,17.80
2017-08-29T05:27:13.441Z,17.80
2017-08-29T05:29:40.961Z,17.80
2017-08-29T05:32:08.448Z,17.80
2017-08-29T05:34:35.959Z,17.80
2017-08-29T05:37:04.200Z,17.90
2017-08-29T05:39:31.716Z,17.90
2017-08-29T05:41:59.220Z,18.00
2017-08-29T05:44:26.723Z,18.00
2017-08-29T05:46:54.235Z,18.00
2017-08-29T05:49:21.766Z,18.10
2017-08-29T05:51:49.260Z,18.20
2017-08-29T05:54:16.755Z,18.20
2017-08-29T05:56:45.005Z,18.30
2017-08-29T05:59:12.507Z,18.20
2017-08-29T06:01:40.002Z,18.30
2017-08-29T06:04:07.486Z,18.40
2017-08-29T06:06:34.987Z,18.50
2017-08-29T06:09:02.521Z,18.60
2017-08-29T06:11:30.014Z,18.70
2017-08-29T06:13:57.498Z,18.80
2017-08-29T06:16:25.005Z,18.90
2017-08-29T06:18:52.496Z,18.90
2017-08-29T06:21:20.004Z,19.00
2017-08-29T06:23:47.498Z,19.10
2017-08-29T06:26:15.007Z,19.20
2017-08-29T06:28:42.577Z,19.30
2017-08-29T06:31:10.088Z,19.40
2017-08-29T06:33:37.578Z,19.40
2017-08-29T06:36:05.087Z,19.50
2017-08-29T06:38:32.566Z,19.60
2017-08-29T06:41:00.111Z,19.70
2017-08-29T06:43:27.611Z,19.80
2017-08-29T06:45:55.106Z,19.90
2017-08-29T06:48:22.624Z,19.90
2017-08-29T06:50:50.105Z,20.10
2017-08-29T06:53:17.605Z,20.10
2017-08-29T06:55:45.098Z,20.20
2017-08-29T06:58:12.606Z,20.20
2017-08-29T07:00:40.094Z,20.30
2017-08-29T07:03:07.589Z,20.40
2017-08-29T07:05:35.917Z,20.50
2017-08-29T07:08:03.451Z,20.50
2017-08-29T07:10:32.184Z,20.80
2017-08-29T07:12:59.699Z,20.70
2017-08-29T07:15:27.197Z,20.90
2017-08-29T07:17:54.709Z,20.90
2017-08-29T07:20:22.207Z,21.00
2017-08-29T07:23:06.726Z,21.00
2017-08-29T07:25:34.244Z,21.10
2017-08-29T07:28:01.776Z,21.20
2017-08-29T07:30:29.265Z,21.30
2017-08-29T07:32:56.761Z,21.40
2017-08-29T07:35:24.309Z,21.50
2017-08-29T07:37:51.793Z,21.60
2017-08-29T07:40:19.307Z,21.70
2017-08-29T07:42:46.786Z,21.80
2017-08-29T07:48:08.038Z,22.00
2017-08-29T07:50:36.109Z,22.10
2017-08-29T07:53:03.593Z,22.20
2017-08-29T07:55:31.086Z,22.20
2017-08-29T07:57:58.597Z,22.30
2017-08-29T08:00:26.098Z,22.40
2017-08-29T08:02:53.598Z,22.40
2017-08-29T08:05:21.754Z,22.40
2017-08-29T08:07:49.271Z,22.40
2017-08-29T08:10:16.781Z,22.50
2017-08-29T08:12:44.254Z,22.60
2017-08-29T08:15:11.760Z,22.80
2017-08-29T08:17:39.254Z,22.90
2017-08-29T08:20:06.738Z,23.00
2017-08-29T08:22:34.251Z,23.10
2017-08-29T08:25:01.730Z,23.20
2017-08-29T08:27:29.239Z,23.30
2017-08-29T08:29:56.714Z,23.20
2017-08-29T08:32:24.205Z,23.20
2017-08-29T08:34:51.686Z,23.30
2017-08-29T08:37:19.197Z,23.50
2017-08-29T08:39:46.710Z,23.50
2017-08-29T08:42:14.210Z,23.40
2017-08-29T08:44:41.689Z,23.40
2017-08-29T08:47:09.209Z,23.40
2017-08-29T08:49:42.629Z,23.40
2017-08-29T08:52:10.171Z,23.40
2017-08-29T08:54:37.667Z,23.50
2017-08-29T08:57:05.159Z,23.60
2017-08-29T08:59:32.650Z,23.70
2017-08-29T09:02:00.137Z,23.80
2017-08-29T09:04:27.655Z,23.80
2017-08-29T09:06:55.130Z,23.90
2017-08-29T09:09:22.634Z,23.90
2017-08-29T09:11:50.154Z,24.10
2017-08-29T09:14:17.703Z,24.20
2017-08-29T09:16:45.187Z,24.30
2017-08-29T09:19:12.695Z,24.50
2017-08-29T09:21:40.689Z,24.60
2017-08-29T09:24:08.204Z,24.60
2017-08-29T09:26:35.696Z,24.70
2017-08-29T09:29:03.202Z,24.70
2017-08-29T09:31:30.699Z,24.70
2017-08-29T09:33:58.197Z,24.90
2017-08-29T09:36:25.689Z,25.00
2017-08-29T09:38:53.193Z,25.00
2017-08-29T09:41:20.718Z,25.00
2017-08-29T09:43:48.189Z,25.10
2017-08-29T09:46:15.681Z,25.00
2017-08-29T09:48:43.930Z,25.10
2017-08-29T09:51:11.430Z,25.10
2017-08-29T09:53:38.904Z,25.20
2017-08-29T09:56:06.402Z,25.30
2017-08-29T09:58:34.818Z,25.30
2017-08-29T10:01:02.338Z,25.30
2017-08-29T10:03:29.821Z,25.50
2017-08-29T10:05:57.312Z,25.30
2017-08-29T10:08:30.498Z,25.00
2017-08-29T10:10:58.030Z,25.10
2017-08-29T10:13:25.530Z,25.20
2017-08-29T10:15:58.632Z,25.30
2017-08-29T10:18:27.045Z,25.30
2017-08-29T10:20:54.541Z,25.50
2017-08-29T10:23:22.055Z,25.60
2017-08-29T10:25:49.553Z,25.60
2017-08-29T10:28:17.035Z,25.50
2017-08-29T10:30:44.517Z,25.60
2017-08-29T10:33:12.018Z,25.60
2017-08-29T10:35:39.526Z,25.70
2017-08-29T10:38:07.037Z,25.90
2017-08-29T10:40:34.527Z,25.90
2017-08-29T10:43:02.015Z,25.90
2017-08-29T10:45:29.528Z,25.90
2017-08-29T10:47:57.014Z,25.90
2017-08-29T10:50:24.500Z,25.90
2017-08-29T10:52:52.022Z,26.00
2017-08-29T10:55:19.517Z,26.00
2017-08-29T10:57:47.029Z,26.00
2017-08-29T11:00:14.533Z,26.00
2017-08-29T11:02:42.030Z,26.20
2017-08-29T11:05:09.548Z,26.10
2017-08-29T11:07:37.055Z,26.00
2017-08-29T11:10:04.554Z,26.00
2017-08-29T11:12:32.049Z,26.20
2017-08-29T11:15:00.335Z,26.10
2017-08-29T11:17:27.817Z,26.10
2017-08-29T11:19:55.338Z,26.30
2017-08-29T11:22:22.846Z,26.40
2017-08-29T11:24:50.386Z,26.50
2017-08-29T11:27:17.924Z,26.50
2017-08-29T11:29:45.422Z,26.50
2017-08-29T11:32:12.950Z,26.60
2017-08-29T11:34:40.458Z,26.60
2017-08-29T11:37:07.965Z,26.60
2017-08-29T11:39:35.458Z,26.70
2017-08-29T11:42:02.983Z,26.60
2017-08-29T11:44:30.491Z,26.80
2017-08-29T11:46:57.986Z,26.80
2017-08-29T11:49:26.241Z,26.90
2017-08-29T11:51:53.738Z,26.90
2017-08-29T11:54:21.218Z,27.00
2017-08-29T11:56:48.716Z,27.00
2017-08-29T11:59:16.989Z,27.10
2017-08-29T12:01:45.266Z,27.20
2017-08-29T12:04:12.764Z,27.20
2017-08-29T12:06:40.254Z,27.40
2017-08-29T12:09:07.767Z,27.20
2017-08-29T12:11:35.259Z,27.30
2017-08-29T12:14:02.767Z,27.20
2017-08-29T12:16:30.245Z,27.20
2017-08-29T12:18:57.758Z,27.10
2017-08-29T12:21:25.256Z,27.20
2017-08-29T12:23:52.774Z,27.40
2017-08-29T12:26:20.259Z,27.40
2017-08-29T12:28:48.553Z,27.30
2017-08-29T12:31:25.973Z,27.30
2017-08-29T12:33:53.475Z,27.40
2017-08-29T12:36:20.961Z,27.40
2017-08-29T12:38:48.479Z,27.30
2017-08-29T12:41:15.985Z,27.40
2017-08-29T12:43:43.489Z,27.40
2017-08-29T12:46:11.307Z,27.50
2017-08-29T12:48:38.823Z,27.50
2017-08-29T12:51:06.325Z,27.50
2017-08-29T12:53:33.809Z,27.40
2017-08-29T12:56:01.294Z,27.30
2017-08-29T12:58:28.820Z,27.40
2017-08-29T13:00:56.323Z,27.50
2017-08-29T13:03:23.812Z,27.50
2017-08-29T13:05:51.339Z,27.50
2017-08-29T13:08:18.850Z,27.60
2017-08-29T13:10:46.410Z,27.60
2017-08-29T13:13:13.901Z,27.60
2017-08-29T13:15:41.435Z,27.60
2017-08-29T13:18:08.923Z,27.60
2017-08-29T13:20:36.448Z,27.60
2017-08-29T13:23:03.954Z,27.60
2017-08-29T13:25:31.476Z,27.70
2017-08-29T13:27:58.967Z,27.70
2017-08-29T13:30:26.471Z,27.80
2017-08-29T13:32:53.965Z,27.70
2017-08-29T13:35:21.861Z,27.70
2017-08-29T13:37:49.353Z,27.80
2017-08-29T13:43:10.867Z,27.80
2017-08-29T13:45:38.362Z,27.70
2017-08-29T13:48:05.844Z,27.80
2017-08-29T13:50:33.349Z,27.90
2017-08-29T13:53:00.845Z,27.90
2017-08-29T13:55:28.337Z,27.90
2017-08-29T13:57:55.829Z,27.80
2017-08-29T14:00:23.309Z,27.80
2017-08-29T14:02:50.814Z,27.70
2017-08-29T14:05:18.357Z,27.60
2017-08-29T14:07:45.853Z,27.70
2017-08-29T14:10:13.344Z,27.80
2017-08-29T14:12:40.858Z,27.70
2017-08-29T14:15:08.449Z,27.80
2017-08-29T14:17:35.958Z,27.80
2017-08-29T14:20:03.480Z,27.80
2017-08-29T14:22:36.847Z,27.70
2017-08-29T14:25:04.346Z,27.70
2017-08-29T14:27:31.857Z,27.50
2017-08-29T14:30:00.119Z,27.80
2017-08-29T14:32:27.631Z,27.80
2017-08-29T14:34:55.122Z,28.00
2017-08-29T14:37:22.617Z,28.10
2017-08-29T14:39:50.144Z,28.20
2017-08-29T14:42:17.630Z,28.20
2017-08-29T14:44:45.132Z,28.20
2017-08-29T14:47:24.615Z,28.20
2017-08-29T14:49:52.119Z,28.20
2017-08-29T14:52:19.630Z,28.20
2017-08-29T14:54:47.148Z,28.30
2017-08-29T14:57:14.646Z,28.20
2017-08-29T14:59:42.144Z,28.20
2017-08-29T15:02:09.617Z,28.20
2017-08-29T15:04:37.142Z,28.20
2017-08-29T15:07:04.631Z,28.20
2017-08-29T15:09:32.134Z,28.20
2017-08-29T15:12:00.383Z,28.20
2017-08-29T15:14:27.897Z,28.20
2017-08-29T15:16:55.385Z,28.30
2017-08-29T15:19:22.899Z,28.40
2017-08-29T15:21:50.397Z,28.40
2017-08-29T15:24:17.897Z,28.50
2017-08-29T15:26:47.898Z,28.40
2017-08-29T15:29:15.404Z,28.40
2017-08-29T15:31:42.903Z,28.50
2017-08-29T15:34:10.425Z,28.50
2017-08-29T15:36:37.928Z,28.40
2017-08-29T15:39:05.429Z,28.50
2017-08-29T15:41:32.928Z,28.50
2017-08-29T15:44:00.416Z,28.50
2017-08-29T15:46:27.910Z,28.50
2017-08-29T15:48:55.422Z,28.40
2017-08-29T15:51:22.911Z,28.30
2017-08-29T15:53:50.428Z,28.30
2017-08-29T15:56:17.918Z,28.30
2017-08-29T15:58:45.446Z,28.40
2017-08-29T16:01:12.931Z,28.60
2017-08-29T16:03:40.428Z,28.70
2017-08-29T16:06:07.936Z,28.80
2017-08-29T16:08:35.435Z,28.70
2017-08-29T16:11:02.940Z,28.80
2017-08-29T16:13:30.422Z,28.80
2017-08-29T16:15:57.926Z,28.80
2017-08-29T16:18:25.426Z,28.90
2017-08-29T16:20:52.929Z,29.00
2017-08-29T16:23:20.475Z,29.10
2017-08-29T16:25:48.739Z,29.50
2017-08-29T16:28:16.226Z,29.50
2017-08-29T16:30:43.719Z,29.70
2017-08-29T16:33:11.210Z,29.90
2017-08-29T16:35:38.677Z,30.20
2017-08-29T16:38:06.177Z,30.50
2017-08-29T16:40:33.654Z,30.60
2017-08-29T16:43:04.681Z,30.80
2017-08-29T16:45:32.168Z,31.10
2017-08-29T16:47:59.672Z,31.50
2017-08-29T16:50:27.180Z,32.10
2017-08-29T16:52:54.675Z,32.60
2017-08-29T16:55:22.170Z,33.10
2017-08-29T16:57:49.682Z,33.40
2017-08-29T17:00:17.178Z,33.50
2017-08-29T17:02:44.689Z,32.90
2017-08-29T17:05:12.186Z,32.20
2017-08-29T17:07:39.690Z,31.80
2017-08-29T17:10:07.949Z,31.20
2017-08-29T17:12:35.453Z,31.10
2017-08-29T17:15:02.942Z,31.50
2017-08-29T17:17:30.443Z,31.30
2017-08-29T17:19:57.930Z,30.60
2017-08-29T17:22:26.196Z,29.90
2017-08-29T17:24:53.682Z,29.30
2017-08-29T17:27:21.205Z,28.80
2017-08-29T17:29:48.711Z,28.40
2017-08-29T17:32:16.206Z,28.10
2017-08-29T17:34:43.698Z,27.80
2017-08-29T17:37:11.200Z,27.60
2017-08-29T17:39:38.709Z,27.40
2017-08-29T17:42:06.948Z,27.10
2017-08-29T17:44:34.498Z,27.00
2017-08-29T17:49:55.481Z,26.70
2017-08-29T17:52:23.669Z,26.60
2017-08-29T17:54:51.183Z,26.50
2017-08-29T17:57:20.364Z,26.20
2017-08-29T17:59:47.868Z,26.20
2017-08-29T18:02:15.360Z,26.10
2017-08-29T18:04:42.884Z,25.90
2017-08-29T18:07:10.362Z,25.80
2017-08-29T18:09:37.852Z,25.70
2017-08-29T18:12:05.338Z,25.60
2017-08-29T18:14:33.615Z,25.50
2017-08-29T18:17:01.135Z,25.50
2017-08-29T18:19:28.674Z,25.40
2017-08-29T18:21:56.162Z,25.30
2017-08-29T18:24:27.119Z,25.20
2017-08-29T18:26:54.616Z,25.10
2017-08-29T18:29:22.109Z,25.10
2017-08-29T18:31:49.622Z,25.00
2017-08-29T18:34:17.123Z,24.90
2017-08-29T18:36:44.625Z,24.80
2017-08-29T18:39:12.114Z,24.80
2017-08-29T18:41:40.469Z,24.60
2017-08-29T18:44:07.973Z,24.60
2017-08-29T18:46:35.487Z,24.50
2017-08-29T18:49:02.979Z,24.40
2017-08-29T18:51:30.468Z,24.40
2017-08-29T18:53:57.983Z,24.30
2017-08-29T18:56:25.495Z,24.20
2017-08-29T18:58:53.013Z,24.10
2017-08-29T19:01:20.515Z,24.00
2017-08-29T19:03:48.783Z,23.90
2017-08-29T19:06:16.341Z,23.90
2017-08-29T19:08:43.869Z,23.90
2017-08-29T19:11:11.372Z,23.80
2017-08-29T19:13:38.862Z,23.70
2017-08-29T19:16:06.383Z,23.60
2017-08-29T19:18:33.882Z,23.60
2017-08-29T19:21:01.374Z,23.50
2017-08-29T19:23:28.875Z,23.50
2017-08-29T19:25:56.384Z,23.40
2017-08-29T19:28:23.893Z,23.40
2017-08-29T19:30:51.388Z,23.40
2017-08-29T19:33:18.903Z,23.30
2017-08-29T19:35:46.398Z,23.30
2017-08-29T19:38:13.908Z,23.20
2017-08-29T19:40:41.404Z,23.10
2017-08-29T19:43:08.909Z,23.10
2017-08-29T19:45:36.398Z,23.10
2017-08-29T19:48:05.613Z,22.90
2017-08-29T19:50:33.104Z,22.90
2017-08-29T19:53:00.605Z,22.90
2017-08-29T19:55:28.108Z,22.90
2017-08-29T19:57:55.656Z,22.80
2017-08-29T20:00:23.153Z,22.70
2017-08-29T20:02:50.649Z,22.70
2017-08-29T20:05:18.146Z,22.70
2017-08-29T20:07:45.670Z,22.70
2017-08-29T20:10:14.546Z,22.60
2017-08-29T20:12:42.032Z,22.60
2017-08-29T20:15:09.529Z,22.60
2017-08-29T20:17:37.031Z,22.60
2017-08-29T20:20:05.290Z,22.50
2017-08-29T20:22:32.788Z,22.50
2017-08-29T20:25:00.317Z,22.40
2017-08-29T20:27:28.571Z,22.40
2017-08-29T20:29:56.070Z,22.40
2017-08-29T20:32:24.622Z,22.30
2017-08-29T20:34:52.142Z,22.30
2017-08-29T20:37:19.658Z,22.30
2017-08-29T20:39:48.006Z,22.20
2017-08-29T20:42:16.278Z,22.20
2017-08-29T20:44:43.784Z,22.20
2017-08-29T20:47:11.290Z,22.20
2017-08-29T20:49:38.793Z,22.10
2017-08-29T20:52:06.277Z,22.10
2017-08-29T20:54:34.609Z,22.00
2017-08-29T20:57:02.106Z,22.00
2017-08-29T20:59:29.598Z,22.00
2017-08-29T21:01:57.101Z,22.00
2017-08-29T21:04:24.595Z,22.00
2017-08-29T21:06:52.099Z,21.90
2017-08-29T21:09:20.354Z,21.90
2017-08-29T21:11:47.868Z,21.90
2017-08-29T21:14:15.355Z,21.80
2017-08-29T21:16:42.852Z,21.80
2017-08-29T21:19:10.338Z,21.80
2017-08-29T21:21:37.841Z,21.80
2017-08-29T21:24:05.335Z,21.70
2017-08-29T21:26:32.861Z,21.70
2017-08-29T21:29:00.354Z,21.60
2017-08-29T21:31:27.868Z,21.60
2017-08-29T21:33:55.366Z,21.60
2017-08-29T21:36:23.651Z,21.50
2017-08-29T21:38:51.146Z,21.50
2017-08-29T21:41:18.638Z,21.50
2017-08-29T21:43:46.125Z,21.40
2017-08-29T21:46:13.625Z,21.40
2017-08-29T21:48:41.110Z,21.40
2017-08-29T21:51:08.607Z,21.40
2017-08-29T21:53:36.103Z,21.30
2017-08-29T21:56:03.616Z,21.30
2017-08-29T21:58:31.110Z,21.30
2017-08-29T22:00:58.606Z,21.30
2017-08-29T22:03:26.090Z,21.30
2017-08-29T22:05:53.579Z,21.20
2017-08-29T22:08:21.064Z,21.20
2017-08-29T22:10:48.555Z,21.20
2017-08-29T22:13:16.058Z,21.10
2017-08-29T22:15:43.555Z,21.00
2017-08-29T22:18:11.059Z,21.00
2017-08-29T22:20:38.553Z,21.00
2017-08-29T22:23:06.046Z,21.00
2017-08-29T22:25:34.302Z,20.90
2017-08-29T22:28:01.816Z,20.90
2017-08-29T22:30:29.311Z,21.00
2017-08-29T22:32:56.810Z,20.90
2017-08-29T22:35:24.301Z,20.90
2017-08-29T22:37:51.830Z,20.80
2017-08-29T22:40:19.453Z,20.80
2017-08-29T22:42:46.964Z,20.80
2017-08-29T22:45:14.455Z,20.70
2017-08-29T22:47:41.951Z,20.70
2017-08-29T22:50:10.220Z,20.60
2017-08-29T22:52:37.829Z,20.60
2017-08-29T22:55:05.324Z,20.70
2017-08-29T22:57:32.837Z,20.60
2017-08-29T23:00:00.346Z,20.60
2017-08-29T23:02:27.858Z,20.60
2017-08-29T23:04:55.362Z,20.60
2017-08-29T23:07:22.873Z,20.60
2017-08-29T23:09:50.371Z,20.60
2017-08-29T23:12:17.869Z,20.60
2017-08-29T23:14:45.373Z,20.60
2017-08-29T23:17:12.878Z,20.50
2017-08-29T23:19:41.533Z,20.30
2017-08-29T23:22:09.030Z,20.30
2017-08-29T23:24:36.515Z,20.40
2017-08-29T23:27:04.045Z,20.40
2017-08-29T23:29:31.534Z,20.40
2017-08-29T23:31:59.030Z,20.40
2017-08-29T23:34:26.548Z,20.30
2017-08-29T23:36:54.082Z,20.30
2017-08-29T23:39:21.571Z,20.30
2017-08-29T23:41:49.078Z,20.30
2017-08-29T23:44:17.346Z,20.10
2017-08-29T23:46:45.408Z,20.10
2017-08-29T23:49:12.895Z,19.90
2017-08-29T23:51:40.397Z,19.90
2017-08-29T23:54:07.891Z,19.90
2017-08-29T23:56:35.393Z,19.80
2017-08-29T23:59:02.894Z,19.80
